Luray, Indiana
Current Conditions -  °F | °C
As of 12:53 PM on Wednesday 28 Jan 2015 (Local Time) from KMIE Reporting Station
Clear Clear  
Wind Chill: 17°   Ceiling: Unl
Heat Index: 28°   Visibility: 10mi
Dew Point: 14°   Wind: 13mph
Humidity: 56%   Direction: 170°S
Pressure: 30.28"   Gusts: NA
Location:  40.0191°N, 85.354°W
Report Text: KMIE 281753Z 17011KT 10SM CLR M02/M10 A3028 RMK AO2 SLP266 I6001 T10221100 11022 21139 58017
Loading
Personal Weather Stations






























Interactive Weather Map New forecast layout! Learn more

10-Day Weather Forecast

Advertisements
Track Severe Weather on mobile